• Join FlightAware (Why Join?)
  • Login
  • US Flag 
10:00AM EDT


 

Airport Tracker/Info


-or-


 

Live Flight TrackerFlight Track Log ✈ EJA396 ✈ 29 de Sep de 2013 ✈ KJFK - 0A9

Flight Track Log - Related Links

Times and Time Zones

All times are in EDT time to prevent confusion due to time zone crossing. See the EJA396 flight status page for this flight to view local times or setup timezone preferences in your user account.

Time Position Orientation Groundspeed Altitude Reporting Facility
EDT Latitude Longitude Course Direction KTS MPH feet Rate Location/Type
04:47PM 40.5667 -73.7833 180° South 223 257 7,200  Level New York TRACON
04:48PM 40.5167 -73.8333 217° Southwest 283 326 10,900 3,240 Climbing New York TRACON
04:49PM 40.4667 -73.9500 241° Southwest 352 405 13,700 2,760 Climbing New York TRACON
04:50PM 40.4000 -74.0667 233° Southwest 383 441 16,500 1,680 Climbing New York TRACON
04:51PM 40.3583 -74.1728 243° Southwest 390 449 17,000 240 Climbing New York Center
04:52PM 40.3008 -74.2897 237° Southwest 390 449 17,000  Level New York Center
04:53PM 40.2517 -74.3989 239° Southwest 370 426 17,000 360 Level New York Center
04:54PM 40.2092 -74.4889 238° Southwest 362 417 17,800 1,260 Climbing New York Center
04:55PM 40.1939 -74.6375 262° West 357 411 19,600 2,100 Climbing New York Center
04:56PM 40.1833 -74.7728 264° West 368 423 22,000 3,000 Climbing New York Center
04:57PM 40.1717 -74.9269 264° West 382 440 25,700 3,000 Climbing New York Center
04:58PM 40.1606 -75.0622 264° West 389 448 28,100 2,160 Climbing New York Center
04:59PM 40.1489 -75.2081 264° West 389 448 30,100 1,980 Climbing New York Center
05:00PM 40.1328 -75.3536 262° West 401 461 32,100 1,920 Climbing New York Center
05:01PM 40.0717 -75.4800 238° Southwest 407 468 34,000 1,860 Climbing New York Center
05:02PM 40.0019 -75.6053 234° Southwest 407 468 35,900 960 Climbing New York Center
05:03PM 39.9300 -75.7303 233° Southwest 425 489 36,000  Climbing New York Center
05:04PM 39.8489 -75.8733 234° Southwest 464 534 36,000  Level New York Center
05:05PM 39.7697 -76.0161 234° Southwest 485 558 36,000  Level New York Center
05:06PM 39.6842 -76.1528 231° Southwest 491 565 36,000  Level New York Center
05:07PM 39.6050 -76.2894 233° Southwest 486 559 36,000  Level New York Center
05:08PM 39.5464 -76.3881 232° Southwest 487 560 36,000  Level Washington Center
05:09PM 39.4597 -76.5403 234° Southwest 487 560 36,000  Level Washington Center
05:10PM 39.3794 -76.6764 233° Southwest 487 560 36,000  Level Washington Center
05:11PM 39.3011 -76.8092 233° Southwest 481 554 36,000  Level Washington Center
05:12PM 39.2225 -76.9444 233° Southwest 481 554 36,000  Level Washington Center
05:13PM 39.1439 -77.0742 232° Southwest 481 554 36,000  Level Washington Center
05:14PM 39.0650 -77.2089 233° Southwest 481 554 36,000  Level Washington Center
05:15PM 38.9861 -77.3381 232° Southwest 481 554 36,000  Level Washington Center
05:16PM 38.9092 -77.4669 233° Southwest 476 548 36,000  Level Washington Center
05:17PM 38.8258 -77.5956 230° Southwest 476 548 36,000  Level Washington Center
05:18PM 38.7592 -77.7189 235° Southwest 471 542 36,000  Level Washington Center
05:19PM 38.6794 -77.8494 232° Southwest 477 549 36,000  Level Washington Center
05:20PM 38.6000 -77.9797 232° Southwest 477 549 36,000  Level Washington Center
05:21PM 38.5222 -78.1075 232° Southwest 472 543 36,000  Level Washington Center
05:22PM 38.4467 -78.2322 232° Southwest 467 537 36,000  Level Washington Center
05:23PM 38.3686 -78.3592 232° Southwest 467 537 36,000  Level Washington Center
05:24PM 38.2883 -78.4883 232° Southwest 467 537 36,000  Level Washington Center
05:25PM 38.2167 -78.6125 234° Southwest 454 522 36,000  Level Washington Center
05:26PM 38.1361 -78.7386 231° Southwest 454 522 36,000  Level Washington Center
05:27PM 38.0511 -78.8775 232° Southwest 459 528 36,000  Level Washington Center
05:28PM 37.9706 -79.0031 231° Southwest 459 528 36,000  Level Washington Center
05:29PM 37.8939 -79.1283 232° Southwest 459 528 36,000  Level Washington Center
05:30PM 37.8358 -79.2494 239° Southwest 459 528 36,000  Level Washington Center
05:31PM 37.7692 -79.3828 238° Southwest 459 528 36,000  Level Washington Center
05:32PM 37.6936 -79.5258 236° Southwest 454 522 36,000  Level Washington Center
05:33PM 37.6267 -79.6589 238° Southwest 454 522 36,000  Level Washington Center
05:34PM 37.5617 -79.7889 238° Southwest 449 517 36,000  Level Washington Center
05:35PM 37.5008 -79.9164 239° Southwest 455 524 36,000  Level Washington Center
05:36PM 37.4314 -80.0458 236° Southwest 455 524 36,000  Level Washington Center
05:37PM 37.3378 -80.2253 237° Southwest 473 544 36,000 -180 Level Atlanta Center
05:38PM 37.2728 -80.3511 237° Southwest 460 529 35,600 -480 Descending Atlanta Center
05:39PM 37.2136 -80.4686 238° Southwest 448 516 35,100 -300 Descending Atlanta Center
05:40PM 37.1464 -80.5939 236° Southwest 448 516 35,000 -60 Descending Atlanta Center
05:41PM 37.0578 -80.7044 225° Southwest 448 516 35,000 -540 Level Atlanta Center
05:42PM 36.9306 -80.7853 207° Southwest 454 522 34,000 -1,680 Descending Atlanta Center
05:43PM 36.8353 -80.8875 221° Southwest 454 522 31,700 -2,700 Descending Atlanta Center
05:44PM 36.7886 -81.0242 247° West 429 494 28,700 -3,360 Descending Atlanta Center
05:45PM 36.7419 -81.1608 247° West 430 495 25,000 -3,240 Descending Atlanta Center
05:46PM 36.6928 -81.2919 245° Southwest 430 495 22,300 -2,820 Descending Atlanta Center
05:47PM 36.6517 -81.4072 246° West 419 482 19,400 -3,420 Descending Atlanta Center
05:48PM 36.6103 -81.5275 247° West 395 455 15,500 -3,900 Descending Atlanta Center
05:49PM 36.5669 -81.6503 246° West 372 428 11,600 -2,280 Descending Atlanta Center
05:50PM 36.5311 -81.7469 245° Southwest 322 371 11,000 -300 Descending Atlanta Center
05:51PM 36.5033 -81.8175 244° Southwest 281 323 11,000 -300 Level Atlanta Center
05:52PM 36.4675 -81.9142 245° Southwest 270 311 10,400 -960 Descending Atlanta Center
05:53PM 36.4397 -81.9947 247° West 265 305 9,100 300 Descending Atlanta Center
05:54PM 36.4097 -82.0808 247° West 265 305 11,000 900 Climbing Atlanta Center
05:55PM 36.3797 -82.1639 246° West 265 305 11,000  Level Atlanta Center
05:56PM 36.3558 -82.2317 246° West 265 305 11,000  Level Atlanta Center
05:57PM 36.3558 -82.2317 39° Northeast 265 305 11,000  Level Atlanta Center
05:59PM 36.3667 -82.1667 67° East  Level FlightAware Approximate
06:06PM 36.3712 -82.1734 67° East  Level Estimated
06:07PM 36.3667 -82.1667 67° East  Level FlightAware Approximate
06:08PM 36.3712 -82.1734 67° East  Level Estimated
06:09PM 36.3667 -82.1667 67° East  Level FlightAware Approximate
06:10PM 36.3712 -82.1734 67° East  Level Estimated
06:11PM 36.3667 -82.1667 67° East  Level FlightAware Approximate
06:12PM 36.3712 -82.1734 67° East  Level Estimated
06:13PM 36.3667 -82.1667 67° East  Level FlightAware Approximate